createdAt,value
2017-08-10T00:00:56.114Z,1019.57
2017-08-10T00:02:05.965Z,1019.57
2017-08-10T00:03:15.173Z,1019.55
2017-08-10T00:04:25.175Z,1019.63
2017-08-10T00:05:34.407Z,1019.68
2017-08-10T00:06:43.289Z,1019.67
2017-08-10T00:07:52.504Z,1019.63
2017-08-10T00:09:01.707Z,1019.58
2017-08-10T00:10:11.014Z,1019.58
2017-08-10T00:11:20.864Z,1019.56
2017-08-10T00:12:30.389Z,1019.57
2017-08-10T00:13:39.919Z,1019.61
2017-08-10T00:14:49.129Z,1019.62
2017-08-10T00:15:58.704Z,1019.65
2017-08-10T00:17:07.907Z,1019.68
2017-08-10T00:18:17.115Z,1019.72
2017-08-10T00:19:26.327Z,1019.72
2017-08-10T00:20:35.539Z,1019.78
2017-08-10T00:21:44.805Z,1019.8
2017-08-10T00:22:53.684Z,1019.83
2017-08-10T00:24:03.214Z,1019.82
2017-08-10T00:25:12.093Z,1019.9
2017-08-10T00:26:21.301Z,1019.9
2017-08-10T00:27:30.825Z,1019.88
2017-08-10T00:28:40.028Z,1019.9
2017-08-10T00:29:48.924Z,1019.86
2017-08-10T00:30:58.134Z,1019.85
2017-08-10T00:32:07.335Z,1019.87
2017-08-10T00:33:16.843Z,1019.87
2017-08-10T00:34:26.048Z,1019.92
2017-08-10T00:35:35.252Z,1019.9
2017-08-10T00:36:44.785Z,1019.9
2017-08-10T00:37:53.664Z,1019.9
2017-08-10T00:39:03.344Z,1019.9
2017-08-10T00:40:12.547Z,1019.89
2017-08-10T00:41:21.751Z,1019.89
2017-08-10T00:42:31.283Z,1019.87
2017-08-10T00:43:40.168Z,1019.91
2017-08-10T00:44:49.470Z,1019.92
2017-08-10T00:45:58.673Z,1019.92
2017-08-10T00:47:07.874Z,1019.93
2017-08-10T00:48:16.752Z,1019.99
2017-08-10T00:49:25.650Z,1019.95
2017-08-10T00:50:34.959Z,1020.03
2017-08-10T00:51:44.486Z,1020.03
2017-08-10T00:52:54.015Z,1020.04
2017-08-10T00:54:03.870Z,1020.03
2017-08-10T00:55:12.756Z,1020.03
2017-08-10T00:56:21.687Z,1020.04
2017-08-10T00:57:30.572Z,1020.01
2017-08-10T00:58:40.111Z,1019.95
2017-08-10T00:59:48.991Z,1020.02
2017-08-10T01:00:58.518Z,1019.97
2017-08-10T01:02:07.875Z,1019.96
2017-08-10T01:03:16.755Z,1020.01
2017-08-10T01:04:26.282Z,1019.96
2017-08-10T01:05:35.490Z,1019.94
2017-08-10T01:06:44.698Z,1019.91
2017-08-10T01:07:54.608Z,1019.89
2017-08-10T01:09:03.812Z,1019.9
2017-08-10T01:10:13.021Z,1019.88
2017-08-10T01:11:22.549Z,1019.87
2017-08-10T01:12:32.073Z,1019.88
2017-08-10T01:13:41.582Z,1019.85
2017-08-10T01:14:51.113Z,1019.8
2017-08-10T01:16:00.639Z,1019.79
2017-08-10T01:17:10.174Z,1019.81
2017-08-10T01:18:19.376Z,1019.83
2017-08-10T01:19:28.732Z,1019.87
2017-08-10T01:20:38.258Z,1019.87
2017-08-10T01:21:47.792Z,1019.89
2017-08-10T01:22:56.995Z,1019.94
2017-08-10T01:24:05.876Z,1019.94
2017-08-10T01:25:15.182Z,1019.91
2017-08-10T01:26:24.065Z,1019.91
2017-08-10T01:27:33.945Z,1019.87
2017-08-10T01:28:42.829Z,1019.85
2017-08-10T01:29:52.360Z,1019.86
2017-08-10T01:31:02.787Z,1019.88
2017-08-10T01:32:12.313Z,1019.86
2017-08-10T01:33:21.517Z,1019.92
2017-08-10T01:34:31.049Z,1019.86
2017-08-10T01:35:40.255Z,1019.86
2017-08-10T01:36:49.884Z,1019.82
2017-08-10T01:37:59.088Z,1019.85
2017-08-10T01:39:08.615Z,1019.76
2017-08-10T01:40:18.162Z,1019.73
2017-08-10T01:41:27.368Z,1019.73
2017-08-10T01:42:37.645Z,1019.73
2017-08-10T01:43:46.529Z,1019.76
2017-08-10T01:44:56.056Z,1019.71
2017-08-10T01:46:05.916Z,1019.71
2017-08-10T01:47:15.778Z,1019.65
2017-08-10T01:48:25.454Z,1019.62
2017-08-10T01:49:34.658Z,1019.64
2017-08-10T01:50:43.865Z,1019.62
2017-08-10T01:51:53.717Z,1019.69
2017-08-10T01:53:02.605Z,1019.73
2017-08-10T01:54:11.968Z,1019.73
2017-08-10T01:55:21.170Z,1019.74
2017-08-10T01:56:30.382Z,1019.79
2017-08-10T01:57:39.270Z,1019.85
2017-08-10T01:58:48.472Z,1019.8
2017-08-10T01:59:57.842Z,1019.85
2017-08-10T02:01:07.050Z,1019.84
2017-08-10T02:02:16.579Z,1019.83
2017-08-10T02:03:25.786Z,1019.82
2017-08-10T02:04:35.319Z,1019.76
2017-08-10T02:05:45.048Z,1019.7
2017-08-10T02:06:54.572Z,1019.64
2017-08-10T02:08:03.776Z,1019.61
2017-08-10T02:09:13.308Z,1019.6
2017-08-10T02:10:22.843Z,1019.55
2017-08-10T02:11:32.840Z,1019.56
2017-08-10T02:12:42.041Z,1019.57
2017-08-10T02:13:51.266Z,1019.55
2017-08-10T02:15:00.470Z,1019.46
2017-08-10T02:16:10.667Z,1019.46
2017-08-10T02:17:20.718Z,1019.38
2017-08-10T02:18:29.923Z,1019.36
2017-08-10T02:19:39.452Z,1019.3
2017-08-10T02:20:48.656Z,1019.22
2017-08-10T02:21:57.534Z,1019.14
2017-08-10T02:23:07.213Z,1019.1
2017-08-10T02:24:16.740Z,1019.07
2017-08-10T02:25:25.941Z,1019.08
2017-08-10T02:26:34.825Z,1019.13
2017-08-10T02:27:43.706Z,1019.11
2017-08-10T02:28:52.586Z,1019.18
2017-08-10T02:30:02.134Z,1019.27
2017-08-10T02:31:11.669Z,1019.29
2017-08-10T02:32:22.204Z,1019.3
2017-08-10T02:33:31.415Z,1019.26
2017-08-10T02:34:41.096Z,1019.29
2017-08-10T02:35:49.977Z,1019.23
2017-08-10T02:36:59.509Z,1019.25
2017-08-10T02:38:09.036Z,1019.24
2017-08-10T02:39:17.930Z,1019.31
2017-08-10T02:40:27.608Z,1019.43
2017-08-10T02:41:36.817Z,1019.44
2017-08-10T02:42:46.669Z,1019.44
2017-08-10T02:43:55.885Z,1019.42
2017-08-10T02:45:05.736Z,1019.43
2017-08-10T02:46:14.668Z,1019.43
2017-08-10T02:47:23.872Z,1019.4
2017-08-10T02:48:33.405Z,1019.47
2017-08-10T02:49:43.639Z,1019.35
2017-08-10T02:50:52.525Z,1019.32
2017-08-10T02:52:02.305Z,1019.3
2017-08-10T02:53:12.482Z,1019.23
2017-08-10T02:54:21.364Z,1019.21
2017-08-10T02:55:31.214Z,1019.22
2017-08-10T02:56:40.740Z,1019.22
2017-08-10T02:57:50.094Z,1019.23
2017-08-10T02:58:59.626Z,1019.23
2017-08-10T03:00:08.838Z,1019.24
2017-08-10T03:01:18.370Z,1019.27
2017-08-10T03:02:27.897Z,1019.27
2017-08-10T03:03:37.101Z,1019.28
2017-08-10T03:04:45.983Z,1019.3
2017-08-10T03:05:55.836Z,1019.29
2017-08-10T03:07:05.693Z,1019.33
2017-08-10T03:08:15.543Z,1019.34
2017-08-10T03:09:25.049Z,1019.31
2017-08-10T03:10:34.578Z,1019.31
2017-08-10T03:11:43.787Z,1019.3
2017-08-10T03:12:52.996Z,1019.33
2017-08-10T03:14:01.879Z,1019.4
2017-08-10T03:15:10.917Z,1019.52
2017-08-10T03:16:19.801Z,1019.57
2017-08-10T03:17:29.011Z,1019.66
2017-08-10T03:18:38.539Z,1019.7
2017-08-10T03:19:47.777Z,1019.66
2017-08-10T03:20:57.356Z,1019.58
2017-08-10T03:22:07.537Z,1019.56
2017-08-10T03:23:17.388Z,1019.54
2017-08-10T03:24:26.914Z,1019.53
2017-08-10T03:25:36.443Z,1019.55
2017-08-10T03:26:45.478Z,1019.59
2017-08-10T03:27:55.009Z,1019.6
2017-08-10T03:29:04.217Z,1019.61
2017-08-10T03:30:13.750Z,1019.58
2017-08-10T03:31:23.610Z,1019.62
2017-08-10T03:32:33.064Z,1019.63
2017-08-10T03:33:42.590Z,1019.62
2017-08-10T03:34:52.120Z,1019.61
2017-08-10T03:36:01.010Z,1019.61
2017-08-10T03:37:10.238Z,1019.56
2017-08-10T03:38:19.488Z,1019.58
2017-08-10T03:39:28.376Z,1019.53
2017-08-10T03:40:37.911Z,1019.51
2017-08-10T03:41:47.118Z,1019.48
2017-08-10T03:42:56.325Z,1019.48
2017-08-10T03:44:06.482Z,1019.52
2017-08-10T03:45:15.685Z,1019.52
2017-08-10T03:46:24.887Z,1019.56
2017-08-10T03:47:34.415Z,1019.56
2017-08-10T03:48:43.942Z,1019.56
2017-08-10T03:49:53.571Z,1019.51
2017-08-10T03:51:02.776Z,1019.5
2017-08-10T03:52:12.302Z,1019.4
2017-08-10T03:53:22.155Z,1019.4
2017-08-10T03:54:32.013Z,1019.45
2017-08-10T03:55:41.737Z,1019.5
2017-08-10T03:56:50.949Z,1019.54
2017-08-10T03:58:00.473Z,1019.61
2017-08-10T03:59:09.353Z,1019.63
2017-08-10T04:00:18.879Z,1019.67
2017-08-10T04:01:29.204Z,1019.69
2017-08-10T04:02:39.059Z,1019.64
2017-08-10T04:03:48.912Z,1019.63
2017-08-10T04:04:57.797Z,1019.63
2017-08-10T04:06:07.346Z,1019.59
2017-08-10T04:07:17.028Z,1019.61
2017-08-10T04:08:26.233Z,1019.54
2017-08-10T04:09:35.764Z,1019.59
2017-08-10T04:10:44.971Z,1019.59
2017-08-10T04:11:54.176Z,1019.61
2017-08-10T04:13:03.756Z,1019.7
2017-08-10T04:14:13.285Z,1019.83
2017-08-10T04:15:22.820Z,1019.93
2017-08-10T04:16:32.677Z,1019.96
2017-08-10T04:17:41.563Z,1020.03
2017-08-10T04:18:50.873Z,1020.06
2017-08-10T04:20:00.077Z,1020.03
2017-08-10T04:21:09.603Z,1020.04
2017-08-10T04:22:19.466Z,1020
2017-08-10T04:23:28.343Z,1019.96
2017-08-10T04:24:38.028Z,1019.94
2017-08-10T04:25:47.887Z,1019.97
2017-08-10T04:26:57.752Z,1019.92
2017-08-10T04:28:06.956Z,1019.88
2017-08-10T04:29:16.489Z,1019.86
2017-08-10T04:30:25.844Z,1019.86
2017-08-10T04:31:35.044Z,1019.88
2017-08-10T04:32:44.253Z,1019.85
2017-08-10T04:33:53.463Z,1019.77
2017-08-10T04:35:02.693Z,1019.68
2017-08-10T04:36:12.049Z,1019.67
2017-08-10T04:37:21.253Z,1019.74
2017-08-10T04:38:30.781Z,1019.85
2017-08-10T04:39:40.305Z,1019.97
2017-08-10T04:40:49.188Z,1020.06
2017-08-10T04:41:58.420Z,1020.13
2017-08-10T04:43:07.302Z,1020.14
2017-08-10T04:44:16.504Z,1020.14
2017-08-10T04:45:25.714Z,1020.15
2017-08-10T04:46:34.921Z,1020.11
2017-08-10T04:47:44.497Z,1020.06
2017-08-10T04:48:54.033Z,1020.04
2017-08-10T04:50:03.238Z,1020.06
2017-08-10T04:51:12.449Z,1020.02
2017-08-10T04:52:21.979Z,1020
2017-08-10T04:53:31.509Z,1020.02
2017-08-10T04:54:41.362Z,1019.99
2017-08-10T04:55:50.893Z,1019.98
2017-08-10T04:57:00.096Z,1020.05
2017-08-10T04:58:08.995Z,1020.08
2017-08-10T04:59:17.975Z,1020.07
2017-08-10T05:00:27.500Z,1020.12
2017-08-10T05:01:37.362Z,1020.09
2017-08-10T05:02:46.247Z,1020.09
2017-08-10T05:03:55.772Z,1020.1
2017-08-10T05:05:05.301Z,1020.16
2017-08-10T05:06:14.508Z,1020.18
2017-08-10T05:07:24.038Z,1020.23
2017-08-10T05:08:33.245Z,1020.26
2017-08-10T05:09:43.101Z,1020.28
2017-08-10T05:10:52.742Z,1020.27
2017-08-10T05:12:02.595Z,1020.23
2017-08-10T05:13:12.123Z,1020.25
2017-08-10T05:14:21.973Z,1020.22
2017-08-10T05:15:30.858Z,1020.2
2017-08-10T05:16:40.436Z,1020.21
2017-08-10T05:17:50.293Z,1020.24
2017-08-10T05:19:00.147Z,1020.19
2017-08-10T05:20:09.354Z,1020.16
2017-08-10T05:21:18.559Z,1020.14
2017-08-10T05:22:27.597Z,1020.1
2017-08-10T05:23:36.481Z,1020.03
2017-08-10T05:24:45.685Z,1020.05
2017-08-10T05:25:55.215Z,1020.02
2017-08-10T05:27:04.427Z,1019.97
2017-08-10T05:28:14.011Z,1020.04
2017-08-10T05:29:23.543Z,1020.06
2017-08-10T05:30:33.076Z,1020.08
2017-08-10T05:31:42.621Z,1020.11
2017-08-10T05:32:51.500Z,1020.2
2017-08-10T05:34:00.437Z,1020.29
2017-08-10T05:35:10.306Z,1020.35
2017-08-10T05:36:19.516Z,1020.41
2017-08-10T05:37:29.044Z,1020.45
2017-08-10T05:38:38.570Z,1020.41
2017-08-10T05:39:47.654Z,1020.43
2017-08-10T05:40:56.535Z,1020.41
2017-08-10T05:42:05.744Z,1020.4
2017-08-10T05:43:15.276Z,1020.38
2017-08-10T05:44:24.479Z,1020.44
2017-08-10T05:45:34.812Z,1020.37
2017-08-10T05:46:44.670Z,1020.36
2017-08-10T05:47:53.877Z,1020.36
2017-08-10T05:49:03.094Z,1020.41
2017-08-10T05:50:12.957Z,1020.47
2017-08-10T05:51:22.261Z,1020.52
2017-08-10T05:52:31.466Z,1020.5
2017-08-10T05:53:40.681Z,1020.45
2017-08-10T05:54:49.888Z,1020.4
2017-08-10T05:55:59.091Z,1020.34
2017-08-10T05:57:08.050Z,1020.31
2017-08-10T05:58:17.591Z,1020.33
2017-08-10T05:59:27.440Z,1020.37
2017-08-10T06:00:36.324Z,1020.31
2017-08-10T06:01:45.864Z,1020.37
2017-08-10T06:02:56.141Z,1020.39
2017-08-10T06:04:05.672Z,1020.39
2017-08-10T06:05:14.877Z,1020.47
2017-08-10T06:06:24.407Z,1020.43
2017-08-10T06:07:33.933Z,1020.37
2017-08-10T06:08:43.300Z,1020.38
2017-08-10T06:09:52.827Z,1020.37
2017-08-10T06:11:02.365Z,1020.36
2017-08-10T06:12:11.571Z,1020.35
2017-08-10T06:13:21.428Z,1020.33
2017-08-10T06:14:30.684Z,1020.34
2017-08-10T06:15:39.899Z,1020.36
2017-08-10T06:16:49.105Z,1020.44
2017-08-10T06:17:58.966Z,1020.46
2017-08-10T06:19:07.853Z,1020.48
2017-08-10T06:20:16.741Z,1020.49
2017-08-10T06:21:25.647Z,1020.54
2017-08-10T06:22:35.513Z,1020.57
2017-08-10T06:23:45.056Z,1020.58
2017-08-10T06:24:54.585Z,1020.57
2017-08-10T06:26:04.738Z,1020.58
2017-08-10T06:27:13.941Z,1020.55
2017-08-10T06:28:23.474Z,1020.53
2017-08-10T06:29:33.002Z,1020.53
2017-08-10T06:30:42.208Z,1020.55
2017-08-10T06:31:51.744Z,1020.6
2017-08-10T06:33:01.604Z,1020.6
2017-08-10T06:34:10.813Z,1020.63
2017-08-10T06:35:20.019Z,1020.67
2017-08-10T06:36:29.226Z,1020.73
2017-08-10T06:37:38.682Z,1020.76
2017-08-10T06:38:48.210Z,1020.77
2017-08-10T06:39:57.742Z,1020.84
2017-08-10T06:41:07.925Z,1020.86
2017-08-10T06:42:17.455Z,1020.81
2017-08-10T06:43:27.063Z,1020.83
2017-08-10T06:44:36.268Z,1020.78
2017-08-10T06:45:45.801Z,1020.78
2017-08-10T06:46:55.336Z,1020.75
2017-08-10T06:48:04.542Z,1020.75
2017-08-10T06:49:13.827Z,1020.82
2017-08-10T06:50:24.009Z,1020.81
2017-08-10T06:51:33.214Z,1020.81
2017-08-10T06:52:42.747Z,1020.87
2017-08-10T06:53:51.955Z,1020.84
2017-08-10T06:55:01.685Z,1020.84
2017-08-10T06:56:11.550Z,1020.78
2017-08-10T06:57:20.760Z,1020.74
2017-08-10T06:58:29.651Z,1020.79
2017-08-10T06:59:39.511Z,1020.77
2017-08-10T07:00:49.294Z,1020.72
2017-08-10T07:01:58.510Z,1020.73
2017-08-10T07:03:07.715Z,1020.71
2017-08-10T07:04:16.920Z,1020.78
2017-08-10T07:05:26.138Z,1020.73
2017-08-10T07:06:35.497Z,1020.76
2017-08-10T07:07:45.028Z,1020.73
2017-08-10T07:08:53.919Z,1020.71
2017-08-10T07:10:03.451Z,1020.73
2017-08-10T07:11:12.996Z,1020.66
2017-08-10T07:12:23.000Z,1020.66
2017-08-10T07:13:32.223Z,1020.65
2017-08-10T07:14:41.443Z,1020.69
2017-08-10T07:15:50.327Z,1020.66
2017-08-10T07:16:59.211Z,1020.67
2017-08-10T07:18:09.226Z,1020.65
2017-08-10T07:19:18.786Z,1020.69
2017-08-10T07:20:28.314Z,1020.69
2017-08-10T07:21:38.175Z,1020.72
2017-08-10T07:22:47.387Z,1020.68
2017-08-10T07:23:57.512Z,1020.66
2017-08-10T07:25:07.690Z,1020.66
2017-08-10T07:26:16.573Z,1020.7
2017-08-10T07:27:25.461Z,1020.67
2017-08-10T07:28:34.348Z,1020.72
2017-08-10T07:29:44.179Z,1020.72
2017-08-10T07:30:53.069Z,1020.78
2017-08-10T07:32:02.283Z,1020.83
2017-08-10T07:33:11.819Z,1020.82
2017-08-10T07:34:21.038Z,1020.85
2017-08-10T07:35:30.082Z,1020.89
2017-08-10T07:36:39.295Z,1020.9
2017-08-10T07:37:48.185Z,1020.85
2017-08-10T07:38:58.042Z,1020.89
2017-08-10T07:40:07.247Z,1020.92
2017-08-10T07:41:16.830Z,1020.87
2017-08-10T07:42:26.370Z,1020.96
2017-08-10T07:43:35.584Z,1020.93
2017-08-10T07:44:45.115Z,1020.99
2017-08-10T07:45:54.968Z,1020.99
2017-08-10T07:47:04.549Z,1021.05
2017-08-10T07:48:13.433Z,1021.05
2017-08-10T07:49:22.643Z,1021.05
2017-08-10T07:50:31.527Z,1021.04
2017-08-10T07:51:41.063Z,1021.09
2017-08-10T07:52:50.996Z,1021.05
2017-08-10T07:53:59.880Z,1021.05
2017-08-10T07:55:09.734Z,1021.1
2017-08-10T07:56:18.618Z,1021.1
2017-08-10T07:57:28.149Z,1021.14
2017-08-10T07:58:38.211Z,1021.16
2017-08-10T07:59:47.423Z,1021.13
2017-08-10T08:00:56.958Z,1021.1
2017-08-10T08:02:06.496Z,1021.11
2017-08-10T08:03:15.709Z,1021.14
2017-08-10T08:04:25.245Z,1021.16
2017-08-10T08:05:35.425Z,1021.19
2017-08-10T08:06:44.311Z,1021.21
2017-08-10T08:07:53.845Z,1021.3
2017-08-10T08:09:03.048Z,1021.3
2017-08-10T08:10:11.936Z,1021.39
2017-08-10T08:11:20.822Z,1021.38
2017-08-10T08:12:30.364Z,1021.36
2017-08-10T08:13:39.894Z,1021.34
2017-08-10T08:14:49.442Z,1021.33
2017-08-10T08:15:59.177Z,1021.32
2017-08-10T08:17:09.037Z,1021.35
2017-08-10T08:18:18.576Z,1021.34
2017-08-10T08:19:27.786Z,1021.31
2017-08-10T08:20:37.643Z,1021.31
2017-08-10T08:21:47.327Z,1021.29
2017-08-10T08:22:56.541Z,1021.33
2017-08-10T08:24:06.073Z,1021.35
2017-08-10T08:25:15.602Z,1021.33
2017-08-10T08:26:25.461Z,1021.37
2017-08-10T08:27:35.317Z,1021.33
2017-08-10T08:28:44.851Z,1021.35
2017-08-10T08:29:54.063Z,1021.34
2017-08-10T08:31:02.949Z,1021.34
2017-08-10T08:32:12.482Z,1021.32
2017-08-10T08:33:21.517Z,1021.29
2017-08-10T08:34:31.049Z,1021.31
2017-08-10T08:35:39.932Z,1021.29
2017-08-10T08:36:49.796Z,1021.27
2017-08-10T08:37:58.684Z,1021.23
2017-08-10T08:39:08.518Z,1021.2
2017-08-10T08:40:18.705Z,1021.17
2017-08-10T08:41:27.915Z,1021.2
2017-08-10T08:42:37.454Z,1021.27
2017-08-10T08:43:46.667Z,1021.28
2017-08-10T08:44:56.500Z,1021.29
2017-08-10T08:46:05.711Z,1021.37
2017-08-10T08:47:14.922Z,1021.41
2017-08-10T08:48:24.131Z,1021.41
2017-08-10T08:49:33.354Z,1021.42
2017-08-10T08:50:43.053Z,1021.44
2017-08-10T08:51:52.589Z,1021.42
2017-08-10T08:53:01.800Z,1021.4
2017-08-10T08:54:11.011Z,1021.41
2017-08-10T08:55:20.545Z,1021.45
2017-08-10T08:56:29.856Z,1021.48
2017-08-10T08:57:39.735Z,1021.47
2017-08-10T08:58:49.587Z,1021.46
2017-08-10T08:59:59.450Z,1021.46
2017-08-10T09:01:08.666Z,1021.45
2017-08-10T09:02:18.352Z,1021.42
2017-08-10T09:03:27.893Z,1021.46
2017-08-10T09:04:36.786Z,1021.5
2017-08-10T09:05:46.001Z,1021.49
2017-08-10T09:06:54.889Z,1021.42
2017-08-10T09:08:04.593Z,1021.43
2017-08-10T09:09:13.834Z,1021.42
2017-08-10T09:10:23.690Z,1021.47
2017-08-10T09:11:32.922Z,1021.41
2017-08-10T09:12:41.820Z,1021.46
2017-08-10T09:13:51.182Z,1021.48
2017-08-10T09:15:00.714Z,1021.55
2017-08-10T09:16:10.252Z,1021.51
2017-08-10T09:17:19.790Z,1021.46
2017-08-10T09:18:28.679Z,1021.39
2017-08-10T09:19:39.012Z,1021.35
2017-08-10T09:20:48.604Z,1021.34
2017-08-10T09:21:57.505Z,1021.3
2017-08-10T09:23:06.391Z,1021.28
2017-08-10T09:24:15.605Z,1021.3
2017-08-10T09:25:24.596Z,1021.28
2017-08-10T09:26:34.137Z,1021.3
2017-08-10T09:27:43.668Z,1021.28
2017-08-10T09:28:52.887Z,1021.3
2017-08-10T09:30:02.754Z,1021.32
2017-08-10T09:31:12.493Z,1021.22
2017-08-10T09:32:21.708Z,1021.29
2017-08-10T09:33:30.603Z,1021.27
2017-08-10T09:34:40.150Z,1021.26
2017-08-10T09:35:49.366Z,1021.23
2017-08-10T09:36:59.077Z,1021.26
2017-08-10T09:38:08.618Z,1021.27
2017-08-10T09:39:17.506Z,1021.25
2017-08-10T09:40:26.719Z,1021.2
2017-08-10T09:41:35.619Z,1021.2
2017-08-10T09:42:45.201Z,1021.19
2017-08-10T09:43:54.740Z,1021.17
2017-08-10T09:45:04.272Z,1021.15
2017-08-10T09:46:13.486Z,1021.15
2017-08-10T09:47:23.347Z,1021.16
2017-08-10T09:48:33.210Z,1021.12
2017-08-10T09:49:42.423Z,1021.11
2017-08-10T09:50:51.641Z,1021.07
2017-08-10T09:52:01.175Z,1021.06
2017-08-10T09:53:10.389Z,1021.03
2017-08-10T09:54:19.657Z,1021.05
2017-08-10T09:55:29.515Z,1021.06
2017-08-10T09:56:38.726Z,1021.12
2017-08-10T09:57:48.264Z,1021.14
2017-08-10T09:58:57.803Z,1021.21
2017-08-10T10:00:07.890Z,1021.17
2017-08-10T10:01:17.487Z,1021.18
2017-08-10T10:02:26.389Z,1021.13
2017-08-10T10:03:35.609Z,1021.17
2017-08-10T10:04:45.152Z,1021.14
2017-08-10T10:05:54.840Z,1021.13
2017-08-10T10:07:04.054Z,1021.13
2017-08-10T10:08:13.269Z,1021.11
2017-08-10T10:09:22.802Z,1021.11
2017-08-10T10:10:32.658Z,1021.12
2017-08-10T10:11:42.347Z,1021.13
2017-08-10T10:12:51.568Z,1021.15
2017-08-10T10:14:01.112Z,1021.13
2017-08-10T10:15:09.999Z,1021.12
2017-08-10T10:16:19.208Z,1021.14
2017-08-10T10:17:28.896Z,1021.11
2017-08-10T10:18:38.433Z,1021.12
2017-08-10T10:19:47.324Z,1021.07
2017-08-10T10:20:57.183Z,1021.1
2017-08-10T10:22:07.040Z,1021.09
2017-08-10T10:23:15.932Z,1021.1
2017-08-10T10:24:25.141Z,1021.07
2017-08-10T10:25:34.370Z,1021.09
2017-08-10T10:26:43.922Z,1021.08
2017-08-10T10:27:52.811Z,1021.06
2017-08-10T10:29:02.358Z,1021.08
2017-08-10T10:30:11.568Z,1021.07
2017-08-10T10:31:21.101Z,1021.05
2017-08-10T10:32:30.330Z,1021.1
2017-08-10T10:33:40.187Z,1021.09
2017-08-10T10:34:49.449Z,1021.1
2017-08-10T10:35:58.335Z,1021.11
2017-08-10T10:37:07.223Z,1021.12
2017-08-10T10:38:16.768Z,1021.13
2017-08-10T10:39:25.978Z,1021.13
2017-08-10T10:40:36.213Z,1021.15
2017-08-10T10:41:45.103Z,1021.16
2017-08-10T10:42:54.637Z,1021.17
2017-08-10T10:44:03.529Z,1021.2
2017-08-10T10:45:13.385Z,1021.21
2017-08-10T10:46:23.319Z,1021.26
2017-08-10T10:47:32.531Z,1021.26
2017-08-10T10:48:41.741Z,1021.23
2017-08-10T10:49:50.954Z,1021.26
2017-08-10T10:51:00.168Z,1021.25
2017-08-10T10:52:09.580Z,1021.22
2017-08-10T10:53:19.115Z,1021.22
2017-08-10T10:54:28.976Z,1021.18
2017-08-10T10:55:38.193Z,1021.14
2017-08-10T10:56:47.409Z,1021.16
2017-08-10T10:57:57.145Z,1021.13
2017-08-10T10:59:07.005Z,1021.12
2017-08-10T11:00:16.217Z,1021.09
2017-08-10T11:01:26.080Z,1021.16
2017-08-10T11:02:35.941Z,1021.17
2017-08-10T11:03:44.990Z,1021.2
2017-08-10T11:04:54.861Z,1021.26
2017-08-10T11:06:04.395Z,1021.29
2017-08-10T11:07:13.944Z,1021.3
2017-08-10T11:08:22.834Z,1021.32
2017-08-10T11:09:32.695Z,1021.32
2017-08-10T11:10:41.905Z,1021.35
2017-08-10T11:11:51.121Z,1021.38
2017-08-10T11:13:00.363Z,1021.38
2017-08-10T11:14:09.904Z,1021.39
2017-08-10T11:15:18.841Z,1021.43
2017-08-10T11:16:28.374Z,1021.48
2017-08-10T11:17:37.589Z,1021.5
2017-08-10T11:18:46.800Z,1021.51
2017-08-10T11:19:55.685Z,1021.52
2017-08-10T11:21:05.478Z,1021.5
2017-08-10T11:22:15.013Z,1021.46
2017-08-10T11:23:24.235Z,1021.45
2017-08-10T11:24:33.447Z,1021.37
2017-08-10T11:25:42.660Z,1021.36
2017-08-10T11:26:52.074Z,1021.36
2017-08-10T11:28:00.964Z,1021.36
2017-08-10T11:29:10.828Z,1021.3
2017-08-10T11:30:19.718Z,1021.29
2017-08-10T11:31:29.253Z,1021.22
2017-08-10T11:32:38.411Z,1021.2
2017-08-10T11:33:48.279Z,1021.18
2017-08-10T11:34:57.497Z,1021.15
2017-08-10T11:36:07.033Z,1021.1
2017-08-10T11:37:16.248Z,1021.06
2017-08-10T11:38:25.847Z,1020.99
2017-08-10T11:39:35.387Z,1020.98
2017-08-10T11:40:45.254Z,1020.99
2017-08-10T11:41:54.791Z,1020.99
2017-08-10T11:43:04.338Z,1020.99
2017-08-10T11:44:14.121Z,1020.95
2017-08-10T11:45:23.011Z,1020.91
2017-08-10T11:46:32.872Z,1020.87
2017-08-10T11:47:42.089Z,1020.85
2017-08-10T11:48:51.309Z,1020.84
2017-08-10T11:50:00.898Z,1020.85
2017-08-10T11:51:10.434Z,1020.82
2017-08-10T11:52:19.328Z,1020.8
2017-08-10T11:53:29.188Z,1020.78
2017-08-10T11:54:38.398Z,1020.7
2017-08-10T11:55:48.406Z,1020.74
2017-08-10T11:56:58.265Z,1020.71
2017-08-10T11:58:07.804Z,1020.74
2017-08-10T11:59:17.342Z,1020.81
2017-08-10T12:00:27.525Z,1020.87
2017-08-10T12:01:37.361Z,1020.89
2017-08-10T12:02:46.253Z,1020.91
2017-08-10T12:03:56.115Z,1020.89
2017-08-10T12:05:05.506Z,1020.86
2017-08-10T12:06:15.049Z,1020.9
2017-08-10T12:07:24.744Z,1020.91
2017-08-10T12:08:34.603Z,1021
2017-08-10T12:09:44.167Z,1021.03
2017-08-10T12:10:53.708Z,1020.99
2017-08-10T12:12:02.598Z,1021.01
2017-08-10T12:13:12.070Z,1020.93
2017-08-10T12:14:21.295Z,1020.95
2017-08-10T12:15:30.863Z,1020.92
2017-08-10T12:16:40.106Z,1020.95
2017-08-10T12:17:49.323Z,1020.95
2017-08-10T12:18:58.962Z,1020.96
2017-08-10T12:20:08.505Z,1020.96
2017-08-10T12:21:18.686Z,1021.04
2017-08-10T12:22:27.897Z,1021.06
2017-08-10T12:23:37.117Z,1021.07
2017-08-10T12:24:46.155Z,1021.08
2017-08-10T12:25:55.694Z,1021.06
2017-08-10T12:27:05.244Z,1021.05
2017-08-10T12:28:15.105Z,1021.06
2017-08-10T12:29:24.651Z,1021.01
2017-08-10T12:30:34.241Z,1021.02
2017-08-10T12:31:43.829Z,1020.99
2017-08-10T12:32:53.050Z,1020.98
2017-08-10T12:34:02.269Z,1021
2017-08-10T12:35:11.161Z,1021.03
2017-08-10T12:36:20.478Z,1021.08
2017-08-10T12:37:29.697Z,1021.11
2017-08-10T12:38:39.559Z,1021.1
2017-08-10T12:39:49.102Z,1021.15
2017-08-10T12:40:58.642Z,1021.1
2017-08-10T12:42:08.230Z,1021.12
2017-08-10T12:43:17.770Z,1021.08
2017-08-10T12:44:26.671Z,1021.09
2017-08-10T12:45:35.887Z,1021.07
2017-08-10T12:46:45.157Z,1021.05
2017-08-10T12:47:55.125Z,1021.05
2017-08-10T12:49:04.352Z,1021.06
2017-08-10T12:50:14.215Z,1021.06
2017-08-10T12:51:23.127Z,1021.02
2017-08-10T12:52:33.320Z,1021.03
2017-08-10T12:53:42.691Z,1021.06
2017-08-10T12:54:51.912Z,1021.1
2017-08-10T12:56:00.816Z,1021.09
2017-08-10T12:57:10.041Z,1021.15
2017-08-10T12:58:19.907Z,1021.14
2017-08-10T12:59:29.447Z,1021.13
2017-08-10T13:00:38.658Z,1021.17
2017-08-10T13:01:48.204Z,1021.15
2017-08-10T13:02:57.425Z,1021.13
2017-08-10T13:04:06.964Z,1021.17
2017-08-10T13:05:16.987Z,1021.12
2017-08-10T13:06:26.204Z,1021.13
2017-08-10T13:07:35.748Z,1021.1
2017-08-10T13:08:45.301Z,1021.08
2017-08-10T13:09:54.844Z,1021.1
2017-08-10T13:11:03.896Z,1021.1
2017-08-10T13:12:13.436Z,1021.07
2017-08-10T13:13:22.976Z,1021.05
2017-08-10T13:14:32.514Z,1021.05
2017-08-10T13:15:41.405Z,1021.03
2017-08-10T13:16:51.894Z,1021.01
2017-08-10T13:18:01.434Z,1020.98
2017-08-10T13:19:10.648Z,1020.97
2017-08-10T13:20:19.548Z,1020.97
2017-08-10T13:21:29.090Z,1020.89
2017-08-10T13:22:38.461Z,1020.86
2017-08-10T13:23:48.325Z,1020.88
2017-08-10T13:24:58.183Z,1020.84
2017-08-10T13:26:07.407Z,1020.84
2017-08-10T13:27:16.953Z,1020.82
2017-08-10T13:28:25.993Z,1020.81
2017-08-10T13:29:34.889Z,1020.8
2017-08-10T13:30:44.436Z,1020.78
2017-08-10T13:31:53.974Z,1020.79
2017-08-10T13:33:03.835Z,1020.77
2017-08-10T13:34:13.212Z,1020.76
2017-08-10T13:35:22.126Z,1020.77
2017-08-10T13:36:31.668Z,1020.72
2017-08-10T13:37:41.202Z,1020.75
2017-08-10T13:38:50.439Z,1020.69
2017-08-10T13:40:00.297Z,1020.76
2017-08-10T13:41:09.831Z,1020.84
2017-08-10T13:42:19.049Z,1020.83
2017-08-10T13:43:28.589Z,1020.78
2017-08-10T13:44:37.913Z,1020.71
2017-08-10T13:45:46.849Z,1020.78
2017-08-10T13:46:56.443Z,1020.78
2017-08-10T13:48:05.987Z,1020.7
2017-08-10T13:49:15.237Z,1020.77
2017-08-10T13:50:24.435Z,1020.86
2017-08-10T13:51:33.340Z,1020.77
2017-08-10T13:52:42.894Z,1020.84
2017-08-10T13:53:52.117Z,1020.83
2017-08-10T13:55:01.660Z,1020.89
2017-08-10T13:56:10.898Z,1020.98
2017-08-10T13:57:20.116Z,1020.94
2017-08-10T13:58:29.659Z,1020.93
2017-08-10T13:59:39.212Z,1020.83
2017-08-10T14:00:48.444Z,1020.79
2017-08-10T14:01:58.641Z,1020.83
2017-08-10T14:03:08.215Z,1020.86